Time;durP1;ratioP1;P1;durP2;ratioP2;P2;SDS_P1;SDS_P2;PMS_P1;PMS_P2;Temp;Humidity;BMP_temperature;BMP_pressure;BME280_temperature;BME280_humidity;BME280_pressure;Samples;Min_cycle;Max_cycle;Signal;HPM_P1;HPM_P2
2023/03/21 00:00:40;;;;;;;;;;;;;;;;;;5156137;27;1810;-51
2023/03/21 00:03:07;;;;;;;;;;;;;;;;;;5156143;27;1668;-49
2023/03/21 00:05:38;;;;;;;;;;;;;;;;;;5155827;27;1774;-45
2023/03/21 00:08:06;;;;;;;;;;;;;;;;;;5155679;27;1438;-49
2023/03/21 00:10:34;;;;;;;;;;;;;;;;;;5156040;27;1953;-47
2023/03/21 00:13:07;;;;;;;;;;;;;;;;;;5138063;27;1807;-46
2023/03/21 00:15:37;;;;;;;;;;;;;;;;;;5155471;27;1919;-44
2023/03/21 00:18:16;;;;;;;;;;;;;;;;;;5139344;27;2111;-41
2023/03/21 00:20:46;;;;;;;;;;;;;;;;;;5155786;27;1887;-45
2023/03/21 00:23:13;;;;;;;;;;;;;;;;;;5155702;27;1945;-45
2023/03/21 00:25:40;;;;;;;;;;;;;;;;;;5155367;27;1683;-48
2023/03/21 00:28:07;;;;;;;;;;;;;;;;;;5145853;27;1834;-49
2023/03/21 00:30:34;;;;;;;;;;;;;;;;;;5134686;27;1644;-49
2023/03/21 00:33:02;;;;;;;;;;;;;;;;;;5134682;27;2068;-45
2023/03/21 00:35:50;;;;;;;;;;;;;;;;;;5134508;27;2073;-41
2023/03/21 00:38:28;;;;;;;;;;;;;;;;;;5134613;27;1872;-54
2023/03/21 00:40:55;;;;;;;;;;;;;;;;;;5116145;27;1784;-48
2023/03/21 00:43:30;;;;;;;;;;;;;;;;;;5115744;27;2023;-50
2023/03/21 00:45:58;;;;;;;;;;;;;;;;;;5134746;27;1905;-48
2023/03/21 00:48:26;;;;;;;;;;;;;;;;;;5134126;27;1863;-50
2023/03/21 00:50:54;;;;;;;;;;;;;;;;;;5134256;27;1625;-52
2023/03/21 00:53:21;;;;;;;;;;;;;;;;;;5133259;27;2157;-44
2023/03/21 00:55:49;;;;;;;;;;;;;;;;;;5139873;27;1979;-49
2023/03/21 00:58:16;;;;;;;;;;;;;;;;;;5136638;27;1635;-48
2023/03/21 01:00:45;;;;;;;;;;;;;;;;;;5154913;27;1992;-45
2023/03/21 01:03:14;;;;;;;;;;;;;;;;;;5154532;27;1919;-43
2023/03/21 01:06:05;;;;;;;;;;;;;;;;;;5154720;27;2124;-48
2023/03/21 01:08:37;;;;;;;;;;;;;;;;;;5154650;27;1836;-48
2023/03/21 01:11:19;;;;;;;;;;;;;;;;;;5138245;27;1754;-47
2023/03/21 01:13:46;;;;;;;;;;;;;;;;;;5132367;27;1367;-45
2023/03/21 01:16:24;;;;;;;;;;;;;;;;;;5133860;27;1909;-48
2023/03/21 01:18:51;;;;;;;;;;;;;;;;;;5133806;27;2062;-49
2023/03/21 01:21:19;;;;;;;;;;;;;;;;;;5133766;27;1547;-44
2023/03/21 01:23:46;;;;;;;;;;;;;;;;;;5133922;27;1808;-46
2023/03/21 01:26:14;;;;;;;;;;;;;;;;;;5133444;27;1759;-44
2023/03/21 01:28:43;;;;;;;;;;;;;;;;;;5133458;27;1971;-44
2023/03/21 01:31:11;;;;;;;;;;;;;;;;;;5132156;27;1444;-41
2023/03/21 01:33:39;;;;;;;;;;;;;;;;;;5133315;27;1709;-42
2023/03/21 01:36:07;;;;;;;;;;;;;;;;;;5132028;27;1917;-44
2023/03/21 01:38:43;;;;;;;;;;;;;;;;;;5131923;27;1949;-46
2023/03/21 01:41:27;;;;;;;;;;;;;;;;;;5133263;27;1919;-43
2023/03/21 01:44:16;;;;;;;;;;;;;;;;;;5131789;27;1872;-47
2023/03/21 01:46:51;;;;;;;;;;;;;;;;;;5131639;27;2138;-41
2023/03/21 01:49:49;;;;;;;;;;;;;;;;;;5133341;27;2269;-46
2023/03/21 01:52:31;;;;;;;;;;;;;;;;;;5132895;27;1631;-48
2023/03/21 01:55:10;;;;;;;;;;;;;;;;;;5131331;27;2047;-47
2023/03/21 01:57:52;;;;;;;;;;;;;;;;;;5111302;28;1977;-42
2023/03/21 02:00:40;;;;;;;;;;;;;;;;;;5112256;28;1674;-42
2023/03/21 02:03:22;;;;;;;;;;;;;;;;;;5111117;28;1685;-46
2023/03/21 02:06:30;;;;;;;;;;;;;;;;;;5082715;28;1293;-46
2023/03/21 02:09:08;;;;;;;;;;;;;;;;;;5110735;28;1515;-46
2023/03/21 02:11:36;;;;;;;;;;;;;;;;;;5110674;28;1495;-42
2023/03/21 02:14:04;;;;;;;;;;;;;;;;;;5110638;28;1974;-48
2023/03/21 02:16:51;;;;;;;;;;;;;;;;;;5110783;28;2102;-53
2023/03/21 02:19:25;;;;;;;;;;;;;;;;;;5110770;28;2463;-44
2023/03/21 02:22:31;;;;;;;;;;;;;;;;;;5110582;28;1918;-45
2023/03/21 02:25:24;;;;;;;;;;;;;;;;;;5082475;28;1970;-46
2023/03/21 02:27:58;;;;;;;;;;;;;;;;;;5112163;28;1726;-45
2023/03/21 02:30:45;;;;;;;;;;;;;;;;;;5110055;28;1834;-46
2023/03/21 02:33:30;;;;;;;;;;;;;;;;;;5110572;28;1718;-43
2023/03/21 02:36:03;;;;;;;;;;;;;;;;;;5110540;28;1982;-40
2023/03/21 02:38:44;;;;;;;;;;;;;;;;;;5111391;28;2039;-42
2023/03/21 02:41:16;;;;;;;;;;;;;;;;;;5111646;28;1999;-41
2023/03/21 02:43:46;;;;;;;;;;;;;;;;;;5110171;28;1768;-46
2023/03/21 02:46:17;;;;;;;;;;;;;;;;;;5111622;28;1827;-44
2023/03/21 02:48:59;;;;;;;;;;;;;;;;;;5110115;28;2152;-40
2023/03/21 02:51:29;;;;;;;;;;;;;;;;;;5110099;28;1884;-45
2023/03/21 02:54:01;;;;;;;;;;;;;;;;;;5110250;28;2297;-44
2023/03/21 02:56:50;;;;;;;;;;;;;;;;;;5124300;28;2027;-40
2023/03/21 02:59:20;;;;;;;;;;;;;;;;;;5130509;28;1840;-46
2023/03/21 03:01:49;;;;;;;;;;;;;;;;;;5130745;28;1603;-40
2023/03/21 03:04:26;;;;;;;;;;;;;;;;;;5130713;28;2400;-40
2023/03/21 03:07:00;;;;;;;;;;;;;;;;;;5130791;28;2028;-43
2023/03/21 03:09:42;;;;;;;;;;;;;;;;;;5130235;28;1879;-44
2023/03/21 03:12:09;;;;;;;;;;;;;;;;;;5131751;27;1931;-40
2023/03/21 03:14:41;;;;;;;;;;;;;;;;;;5150617;27;1936;-45
2023/03/21 03:17:41;;;;;;;;;;;;;;;;;;5135905;27;2256;-47
2023/03/21 03:20:43;;;;;;;;;;;;;;;;;;5156710;27;2312;-47
2023/03/21 03:23:25;;;;;;;;;;;;;;;;;;5133456;27;1799;-46
2023/03/21 03:25:57;;;;;;;;;;;;;;;;;;5138132;27;1746;-48
2023/03/21 03:28:26;;;;;;;;;;;;;;;;;;5156666;27;1803;-44
2023/03/21 03:30:55;;;;;;;;;;;;;;;;;;5137642;27;2043;-44
2023/03/21 03:33:44;;;;;;;;;;;;;;;;;;5137840;27;1749;-42
2023/03/21 03:36:13;;;;;;;;;;;;;;;;;;5156715;27;1996;-45
2023/03/21 03:38:59;;;;;;;;;;;;;;;;;;5137508;27;2204;-41
2023/03/21 03:41:27;;;;;;;;;;;;;;;;;;5156835;27;2135;-40
2023/03/21 03:44:00;;;;;;;;;;;;;;;;;;5156182;27;1541;-47
2023/03/21 03:46:39;;;;;;;;;;;;;;;;;;5137774;27;1968;-44
2023/03/21 03:49:17;;;;;;;;;;;;;;;;;;5137230;27;1889;-44
2023/03/21 03:51:50;;;;;;;;;;;;;;;;;;5155924;27;2210;-41
2023/03/21 03:54:41;;;;;;;;;;;;;;;;;;5156152;27;2118;-44
2023/03/21 03:57:10;;;;;;;;;;;;;;;;;;5133836;27;2092;-41
2023/03/21 03:59:42;;;;;;;;;;;;;;;;;;5135527;27;2295;-40
2023/03/21 04:02:33;;;;;;;;;;;;;;;;;;5133368;27;1616;-47
2023/03/21 04:05:03;;;;;;;;;;;;;;;;;;5116644;27;2310;-44
2023/03/21 04:07:30;;;;;;;;;;;;;;;;;;5134636;27;2210;-40
2023/03/21 04:10:00;;;;;;;;;;;;;;;;;;5116529;27;2066;-41
2023/03/21 04:12:29;;;;;;;;;;;;;;;;;;5116842;27;1987;-40
2023/03/21 04:15:15;;;;;;;;;;;;;;;;;;5135015;27;1986;-40
2023/03/21 04:17:47;;;;;;;;;;;;;;;;;;5116298;27;1919;-40
2023/03/21 04:20:15;;;;;;;;;;;;;;;;;;5134882;27;2436;-40
2023/03/21 04:22:56;;;;;;;;;;;;;;;;;;5135011;27;1793;-41
2023/03/21 04:25:23;;;;;;;;;;;;;;;;;;5116418;27;2298;-42
2023/03/21 04:28:01;;;;;;;;;;;;;;;;;;5132228;27;1408;-40
2023/03/21 04:30:51;;;;;;;;;;;;;;;;;;5134565;27;1747;-58
2023/03/21 04:33:37;;;;;;;;;;;;;;;;;;5133132;27;1940;-47
2023/03/21 04:36:08;;;;;;;;;;;;;;;;;;5133385;27;1625;-42
2023/03/21 04:38:36;;;;;;;;;;;;;;;;;;5134232;27;2044;-41
2023/03/21 04:41:05;;;;;;;;;;;;;;;;;;5134858;27;1783;-42
2023/03/21 04:43:32;;;;;;;;;;;;;;;;;;5134788;27;1830;-40
2023/03/21 04:46:00;;;;;;;;;;;;;;;;;;5132698;27;1734;-40
2023/03/21 04:48:27;;;;;;;;;;;;;;;;;;5133478;27;1995;-40
2023/03/21 04:50:55;;;;;;;;;;;;;;;;;;5134254;27;2028;-43
2023/03/21 04:53:22;;;;;;;;;;;;;;;;;;5134240;27;2035;-40
2023/03/21 04:55:50;;;;;;;;;;;;;;;;;;5132849;27;1898;-40
2023/03/21 04:58:21;;;;;;;;;;;;;;;;;;5115335;27;2223;-40
2023/03/21 05:00:51;;;;;;;;;;;;;;;;;;5134063;27;1977;-40
2023/03/21 05:03:20;;;;;;;;;;;;;;;;;;5134092;27;2175;-53
2023/03/21 05:05:47;;;;;;;;;;;;;;;;;;5134043;27;1606;-45
2023/03/21 05:08:17;;;;;;;;;;;;;;;;;;5133778;27;1887;-40
2023/03/21 05:10:45;;;;;;;;;;;;;;;;;;5133953;27;2037;-46
2023/03/21 05:13:12;;;;;;;;;;;;;;;;;;5133766;27;1592;-43
2023/03/21 05:15:39;;;;;;;;;;;;;;;;;;5115266;27;1984;-44
2023/03/21 05:18:12;;;;;;;;;;;;;;;;;;5133688;27;2149;-40
2023/03/21 05:20:58;;;;;;;;;;;;;;;;;;5115189;27;1614;-40
2023/03/21 05:23:30;;;;;;;;;;;;;;;;;;5115271;27;1722;-44
2023/03/21 05:25:58;;;;;;;;;;;;;;;;;;5115001;27;2202;-43
2023/03/21 05:28:51;;;;;;;;;;;;;;;;;;5129042;27;1833;-40
2023/03/21 05:31:19;;;;;;;;;;;;;;;;;;5114941;27;1834;-41
2023/03/21 05:33:52;;;;;;;;;;;;;;;;;;5114819;27;1735;-41
2023/03/21 05:36:20;;;;;;;;;;;;;;;;;;5114853;27;1636;-41
2023/03/21 05:38:47;;;;;;;;;;;;;;;;;;5114621;27;1926;-40
2023/03/21 05:41:15;;;;;;;;;;;;;;;;;;5114473;27;1764;-40
2023/03/21 05:43:45;;;;;;;;;;;;;;;;;;5115204;27;1263;-41
2023/03/21 05:46:14;;;;;;;;;;;;;;;;;;5114634;27;2331;-41
2023/03/21 05:48:41;;;;;;;;;;;;;;;;;;5114653;27;1474;-42
2023/03/21 05:51:14;;;;;;;;;;;;;;;;;;5114496;27;2539;-41
2023/03/21 05:53:42;;;;;;;;;;;;;;;;;;5114780;27;2200;-40
2023/03/21 05:56:10;;;;;;;;;;;;;;;;;;5119622;27;2053;-41
2023/03/21 05:58:48;;;;;;;;;;;;;;;;;;5114368;27;1905;-41
2023/03/21 06:01:16;;;;;;;;;;;;;;;;;;5114195;27;1846;-41
2023/03/21 06:03:55;;;;;;;;;;;;;;;;;;5114151;27;2034;-40
2023/03/21 06:06:25;;;;;;;;;;;;;;;;;;5114413;27;2154;-40
2023/03/21 06:08:54;;;;;;;;;;;;;;;;;;5114350;27;2018;-41
2023/03/21 06:11:24;;;;;;;;;;;;;;;;;;5134540;27;2116;-41
2023/03/21 06:14:08;;;;;;;;;;;;;;;;;;5134761;27;2005;-41
2023/03/21 06:16:36;;;;;;;;;;;;;;;;;;5134826;27;1940;-41
2023/03/21 06:19:03;;;;;;;;;;;;;;;;;;5153525;27;1984;-41
2023/03/21 06:22:05;;;;;;;;;;;;;;;;;;5141946;27;1305;-41
2023/03/21 06:24:36;;;;;;;;;;;;;;;;;;5134550;27;1505;-41
2023/03/21 06:27:04;;;;;;;;;;;;;;;;;;5134586;27;1753;-41
2023/03/21 06:29:45;;;;;;;;;;;;;;;;;;5134548;27;1802;-41
2023/03/21 06:32:12;;;;;;;;;;;;;;;;;;5134533;27;2002;-41
2023/03/21 06:34:40;;;;;;;;;;;;;;;;;;5134348;27;1469;-41
2023/03/21 06:37:08;;;;;;;;;;;;;;;;;;5134528;27;1654;-45
2023/03/21 06:39:36;;;;;;;;;;;;;;;;;;5134646;27;2007;-41
2023/03/21 06:42:03;;;;;;;;;;;;;;;;;;5152930;27;2021;-44
2023/03/21 06:44:30;;;;;;;;;;;;;;;;;;5153020;27;2213;-41
2023/03/21 06:47:02;;;;;;;;;;;;;;;;;;5152774;27;2069;-42
2023/03/21 06:49:30;;;;;;;;;;;;;;;;;;5134364;27;2112;-41
2023/03/21 06:52:04;;;;;;;;;;;;;;;;;;5133609;27;2105;-41
2023/03/21 06:54:32;;;;;;;;;;;;;;;;;;5134001;27;1869;-41
2023/03/21 06:57:06;;;;;;;;;;;;;;;;;;5117737;28;1734;-42
2023/03/21 06:59:35;;;;;;;;;;;;;;;;;;5113581;28;1987;-45
2023/03/21 07:02:09;;;;;;;;;;;;;;;;;;5113780;28;1983;-42
2023/03/21 07:04:45;;;;;;;;;;;;;;;;;;5113259;28;2034;-43
2023/03/21 07:07:18;;;;;;;;;;;;;;;;;;5113447;28;1988;-42
2023/03/21 07:09:45;;;;;;;;;;;;;;;;;;5131882;28;2178;-43
2023/03/21 07:12:13;;;;;;;;;;;;;;;;;;5113614;28;1924;-43
2023/03/21 07:15:16;;;;;;;;;;;;;;;;;;5120099;28;1861;-42
2023/03/21 07:17:44;;;;;;;;;;;;;;;;;;5113458;28;1971;-42
2023/03/21 07:20:14;;;;;;;;;;;;;;;;;;5131770;28;1802;-44
2023/03/21 07:22:42;;;;;;;;;;;;;;;;;;5113955;28;2312;-46
2023/03/21 07:25:09;;;;;;;;;;;;;;;;;;5131801;28;1874;-43
2023/03/21 07:27:38;;;;;;;;;;;;;;;;;;5132082;28;1692;-43
2023/03/21 07:30:08;;;;;;;;;;;;;;;;;;5113318;28;2071;-43
2023/03/21 07:32:36;;;;;;;;;;;;;;;;;;5113303;28;1905;-43
2023/03/21 07:35:05;;;;;;;;;;;;;;;;;;5131022;27;1987;-53
2023/03/21 07:37:32;;;;;;;;;;;;;;;;;;5112512;28;2074;-44
2023/03/21 07:40:08;;;;;;;;;;;;;;;;;;5113353;28;1768;-44
2023/03/21 07:42:36;;;;;;;;;;;;;;;;;;5112813;28;2429;-58
2023/03/21 07:45:03;;;;;;;;;;;;;;;;;;5113370;28;1784;-44
2023/03/21 07:47:33;;;;;;;;;;;;;;;;;;5113281;28;2054;-59
2023/03/21 07:50:00;;;;;;;;;;;;;;;;;;5131492;28;1739;-43
2023/03/21 07:52:27;;;;;;;;;;;;;;;;;;5131565;28;1796;-48
2023/03/21 07:54:54;;;;;;;;;;;;;;;;;;5131717;28;1963;-52
2023/03/21 07:57:22;;;;;;;;;;;;;;;;;;5131545;28;1802;-44
2023/03/21 07:59:49;;;;;;;;;;;;;;;;;;5130986;28;2003;-47
2023/03/21 08:02:17;;;;;;;;;;;;;;;;;;5131817;27;1879;-44
2023/03/21 08:04:44;;;;;;;;;;;;;;;;;;5135519;27;1897;-44
2023/03/21 08:07:11;;;;;;;;;;;;;;;;;;5117065;27;1870;-45
2023/03/21 08:09:39;;;;;;;;;;;;;;;;;;5134846;27;1465;-49
2023/03/21 08:12:09;;;;;;;;;;;;;;;;;;5135135;27;2002;-44
2023/03/21 08:14:37;;;;;;;;;;;;;;;;;;5134914;27;1650;-44
2023/03/21 08:17:04;;;;;;;;;;;;;;;;;;5135104;27;2097;-44
2023/03/21 08:19:32;;;;;;;;;;;;;;;;;;5134682;27;1972;-45
2023/03/21 08:22:00;;;;;;;;;;;;;;;;;;5134817;27;1559;-44
2023/03/21 08:24:27;;;;;;;;;;;;;;;;;;5134802;27;1479;-44
2023/03/21 08:26:54;;;;;;;;;;;;;;;;;;5134658;27;1858;-43
2023/03/21 08:29:23;;;;;;;;;;;;;;;;;;5134775;27;2068;-44
2023/03/21 08:31:51;;;;;;;;;;;;;;;;;;5134648;27;1933;-51
2023/03/21 08:34:18;;;;;;;;;;;;;;;;;;5134677;27;1658;-43
2023/03/21 08:36:46;;;;;;;;;;;;;;;;;;5150386;27;2047;-40
2023/03/21 08:39:14;;;;;;;;;;;;;;;;;;5155087;27;2035;-41
2023/03/21 08:41:42;;;;;;;;;;;;;;;;;;5155191;27;1915;-40
2023/03/21 08:44:10;;;;;;;;;;;;;;;;;;5155216;27;1882;-42
2023/03/21 08:46:37;;;;;;;;;;;;;;;;;;5154775;27;2191;-42
2023/03/21 08:49:05;;;;;;;;;;;;;;;;;;5153547;27;2154;-41
2023/03/21 08:51:33;;;;;;;;;;;;;;;;;;5155381;27;1652;-47
2023/03/21 08:54:00;;;;;;;;;;;;;;;;;;5154927;27;1828;-40
2023/03/21 08:56:27;;;;;;;;;;;;;;;;;;5143288;27;1942;-40
2023/03/21 08:58:55;;;;;;;;;;;;;;;;;;5134027;27;1978;-42
2023/03/21 09:01:22;;;;;;;;;;;;;;;;;;5148531;27;2028;-41
2023/03/21 09:03:50;;;;;;;;;;;;;;;;;;5154680;27;1894;-40
2023/03/21 09:06:17;;;;;;;;;;;;;;;;;;5154072;27;1839;-40
2023/03/21 09:08:45;;;;;;;;;;;;;;;;;;5154277;27;1510;-46
2023/03/21 09:11:12;;;;;;;;;;;;;;;;;;5154811;27;1828;-39
2023/03/21 09:13:40;;;;;;;;;;;;;;;;;;5153954;27;1683;-40
2023/03/21 09:16:08;;;;;;;;;;;;;;;;;;5153896;27;1975;-39
2023/03/21 09:18:46;;;;;;;;;;;;;;;;;;5154192;27;1899;-41
2023/03/21 09:21:15;;;;;;;;;;;;;;;;;;5135690;27;2386;-40
2023/03/21 09:23:49;;;;;;;;;;;;;;;;;;5154323;27;1958;-41
2023/03/21 09:26:18;;;;;;;;;;;;;;;;;;5154259;27;2072;-43
2023/03/21 09:28:46;;;;;;;;;;;;;;;;;;5154542;27;1933;-43
2023/03/21 09:31:15;;;;;;;;;;;;;;;;;;5154045;27;1798;-40
2023/03/21 09:33:42;;;;;;;;;;;;;;;;;;5152067;27;1676;-40
2023/03/21 09:36:12;;;;;;;;;;;;;;;;;;5133168;27;2258;-46
2023/03/21 09:38:41;;;;;;;;;;;;;;;;;;5133180;27;1898;-40
2023/03/21 09:41:15;;;;;;;;;;;;;;;;;;5133358;27;2074;-41
2023/03/21 09:44:02;;;;;;;;;;;;;;;;;;5133204;27;1878;-40
2023/03/21 09:46:49;;;;;;;;;;;;;;;;;;5133193;27;1751;-39
2023/03/21 09:49:28;;;;;;;;;;;;;;;;;;5133081;27;2017;-42
2023/03/21 09:51:58;;;;;;;;;;;;;;;;;;5132944;27;2303;-43
2023/03/21 09:54:26;;;;;;;;;;;;;;;;;;5132748;27;1918;-43
2023/03/21 09:56:56;;;;;;;;;;;;;;;;;;5132644;27;1766;-42
2023/03/21 09:59:30;;;;;;;;;;;;;;;;;;5132947;27;1971;-41
2023/03/21 10:02:00;;;;;;;;;;;;;;;;;;5132868;27;2329;-41
2023/03/21 10:04:28;;;;;;;;;;;;;;;;;;5132640;27;2102;-42
2023/03/21 10:06:57;;;;;;;;;;;;;;;;;;5132858;27;1855;-46
2023/03/21 10:09:26;;;;;;;;;;;;;;;;;;5132846;27;1799;-43
2023/03/21 10:12:00;;;;;;;;;;;;;;;;;;5132807;27;1668;-42
2023/03/21 10:14:27;;;;;;;;;;;;;;;;;;5113647;27;2214;-43
2023/03/21 10:16:56;;;;;;;;;;;;;;;;;;5113982;27;1564;-44
2023/03/21 10:19:24;;;;;;;;;;;;;;;;;;5132310;27;1980;-43
2023/03/21 10:21:51;;;;;;;;;;;;;;;;;;5141367;27;1892;-42
2023/03/21 10:24:30;;;;;;;;;;;;;;;;;;5153223;27;1709;-42
2023/03/21 10:26:58;;;;;;;;;;;;;;;;;;5153098;27;1986;-42
2023/03/21 10:29:27;;;;;;;;;;;;;;;;;;5152780;27;2374;-42
2023/03/21 10:31:55;;;;;;;;;;;;;;;;;;5139051;27;1943;-42
2023/03/21 10:34:30;;;;;;;;;;;;;;;;;;5132517;27;1836;-42
2023/03/21 10:36:58;;;;;;;;;;;;;;;;;;5132437;27;1707;-42
2023/03/21 10:39:27;;;;;;;;;;;;;;;;;;5132175;27;1915;-45
2023/03/21 10:41:54;;;;;;;;;;;;;;;;;;5132039;27;1889;-41
2023/03/21 10:44:27;;;;;;;;;;;;;;;;;;5132538;27;1880;-42
2023/03/21 10:46:56;;;;;;;;;;;;;;;;;;5131388;27;1568;-41
2023/03/21 10:49:25;;;;;;;;;;;;;;;;;;5132239;27;1802;-42
2023/03/21 10:51:55;;;;;;;;;;;;;;;;;;5131839;27;1939;-43
2023/03/21 10:54:27;;;;;;;;;;;;;;;;;;5132207;27;2101;-43
2023/03/21 10:57:14;;;;;;;;;;;;;;;;;;5131957;27;2041;-46
2023/03/21 10:59:48;;;;;;;;;;;;;;;;;;5132185;27;1988;-44
2023/03/21 11:02:17;;;;;;;;;;;;;;;;;;5131879;28;1867;-42
2023/03/21 11:04:45;;;;;;;;;;;;;;;;;;5132187;28;1813;-44
2023/03/21 11:07:14;;;;;;;;;;;;;;;;;;5131905;28;2129;-48
2023/03/21 11:09:43;;;;;;;;;;;;;;;;;;5132037;28;1825;-47
2023/03/21 11:12:12;;;;;;;;;;;;;;;;;;5132056;28;1914;-42
2023/03/21 11:14:41;;;;;;;;;;;;;;;;;;5131482;28;1852;-42
2023/03/21 11:17:17;;;;;;;;;;;;;;;;;;5132141;28;1346;-55
2023/03/21 11:19:51;;;;;;;;;;;;;;;;;;5131682;28;1976;-47
2023/03/21 11:22:23;;;;;;;;;;;;;;;;;;5131807;28;2341;-42
2023/03/21 11:24:56;;;;;;;;;;;;;;;;;;5141043;27;2212;-42
2023/03/21 11:27:28;;;;;;;;;;;;;;;;;;5132044;28;1580;-58
2023/03/21 11:29:57;;;;;;;;;;;;;;;;;;5131872;27;1723;-43
2023/03/21 11:32:29;;;;;;;;;;;;;;;;;;5131638;27;2220;-42
2023/03/21 11:34:58;;;;;;;;;;;;;;;;;;5131998;28;2103;-42
2023/03/21 11:37:27;;;;;;;;;;;;;;;;;;5132043;27;1528;-45
2023/03/21 11:39:55;;;;;;;;;;;;;;;;;;5135719;27;2152;-43
2023/03/21 11:42:30;;;;;;;;;;;;;;;;;;5135736;27;1814;-48
2023/03/21 11:45:03;;;;;;;;;;;;;;;;;;5135132;27;1751;-42
2023/03/21 11:47:30;;;;;;;;;;;;;;;;;;5135420;27;1652;-47
2023/03/21 11:49:58;;;;;;;;;;;;;;;;;;5135679;27;2004;-42
2023/03/21 11:52:42;;;;;;;;;;;;;;;;;;5135268;27;1649;-54
2023/03/21 11:55:19;;;;;;;;;;;;;;;;;;5135186;27;1895;-42
2023/03/21 11:57:51;;;;;;;;;;;;;;;;;;5134891;27;1894;-43
2023/03/21 12:00:53;;;;;;;;;;;;;;;;;;5135166;27;2144;-46
2023/03/21 12:03:30;;;;;;;;;;;;;;;;;;5101811;27;1754;-42
2023/03/21 12:06:18;;;;;;;;;;;;;;;;;;5116831;27;1602;-44
2023/03/21 12:08:53;;;;;;;;;;;;;;;;;;5134985;27;2056;-44
2023/03/21 12:11:26;;;;;;;;;;;;;;;;;;5135194;27;2340;-52
2023/03/21 12:13:56;;;;;;;;;;;;;;;;;;5134506;27;1954;-42
2023/03/21 12:16:26;;;;;;;;;;;;;;;;;;5135059;27;1867;-45
2023/03/21 12:18:56;;;;;;;;;;;;;;;;;;5134751;27;2075;-43
2023/03/21 12:21:36;;;;;;;;;;;;;;;;;;5135335;27;2003;-42
2023/03/21 12:24:06;;;;;;;;;;;;;;;;;;5134751;27;2156;-42
2023/03/21 12:26:48;;;;;;;;;;;;;;;;;;5134742;27;1630;-46
2023/03/21 12:29:16;;;;;;;;;;;;;;;;;;5134513;27;1995;-51
2023/03/21 12:31:49;;;;;;;;;;;;;;;;;;5134813;27;2110;-41
2023/03/21 12:34:33;;;;;;;;;;;;;;;;;;5134549;27;1979;-42
2023/03/21 12:37:06;;;;;;;;;;;;;;;;;;5134695;27;1499;-42
2023/03/21 12:39:38;;;;;;;;;;;;;;;;;;5134491;27;1969;-50
2023/03/21 12:42:08;;;;;;;;;;;;;;;;;;5134622;27;1811;-45
2023/03/21 12:44:40;;;;;;;;;;;;;;;;;;5134429;27;1760;-44
2023/03/21 12:47:11;;;;;;;;;;;;;;;;;;5134377;27;2146;-46
2023/03/21 12:49:47;;;;;;;;;;;;;;;;;;5133051;27;1651;-43
2023/03/21 12:52:18;;;;;;;;;;;;;;;;;;5134256;27;1525;-42
2023/03/21 12:55:06;;;;;;;;;;;;;;;;;;5134397;27;1865;-55
2023/03/21 12:57:36;;;;;;;;;;;;;;;;;;5134246;27;1873;-42
2023/03/21 13:00:16;;;;;;;;;;;;;;;;;;5134249;27;1909;-43
2023/03/21 13:02:48;;;;;;;;;;;;;;;;;;5134084;27;2007;-54
2023/03/21 13:05:18;;;;;;;;;;;;;;;;;;5134291;27;1714;-44
2023/03/21 13:07:47;;;;;;;;;;;;;;;;;;5134072;27;1714;-46
2023/03/21 13:10:16;;;;;;;;;;;;;;;;;;5133853;27;2099;-42
2023/03/21 13:12:43;;;;;;;;;;;;;;;;;;5133802;27;1799;-45
2023/03/21 13:15:11;;;;;;;;;;;;;;;;;;5133726;27;1889;-46
2023/03/21 13:18:09;;;;;;;;;;;;;;;;;;5133770;27;1483;-44
2023/03/21 13:20:44;;;;;;;;;;;;;;;;;;5112093;27;1913;-42
2023/03/21 13:23:12;;;;;;;;;;;;;;;;;;5133591;27;1421;-42
2023/03/21 13:25:45;;;;;;;;;;;;;;;;;;5133767;27;1860;-42
2023/03/21 13:28:17;;;;;;;;;;;;;;;;;;5133801;27;1982;-47
2023/03/21 13:30:45;;;;;;;;;;;;;;;;;;5133578;27;2202;-41
2023/03/21 13:33:16;;;;;;;;;;;;;;;;;;5133481;27;1679;-42
2023/03/21 13:35:44;;;;;;;;;;;;;;;;;;5114784;27;2194;-42
2023/03/21 13:38:28;;;;;;;;;;;;;;;;;;5133129;27;2029;-42
2023/03/21 13:40:55;;;;;;;;;;;;;;;;;;5133234;27;1982;-41
2023/03/21 13:43:28;;;;;;;;;;;;;;;;;;5133533;27;1901;-42
2023/03/21 13:45:55;;;;;;;;;;;;;;;;;;5132941;27;1978;-42
2023/03/21 13:48:30;;;;;;;;;;;;;;;;;;5133132;27;1844;-43
2023/03/21 13:51:01;;;;;;;;;;;;;;;;;;5132886;27;1674;-43
2023/03/21 13:53:30;;;;;;;;;;;;;;;;;;5133000;27;2048;-43
2023/03/21 13:55:59;;;;;;;;;;;;;;;;;;5139554;27;1877;-43
2023/03/21 13:58:32;;;;;;;;;;;;;;;;;;5153425;27;2153;-43
2023/03/21 14:01:12;;;;;;;;;;;;;;;;;;5153323;27;1907;-42
2023/03/21 14:03:39;;;;;;;;;;;;;;;;;;5147950;27;1879;-52
2023/03/21 14:06:07;;;;;;;;;;;;;;;;;;5132927;27;2218;-43
2023/03/21 14:08:35;;;;;;;;;;;;;;;;;;5132919;27;1830;-42
2023/03/21 14:11:05;;;;;;;;;;;;;;;;;;5132934;27;1950;-42
2023/03/21 14:13:33;;;;;;;;;;;;;;;;;;5133080;27;1752;-42
2023/03/21 14:16:11;;;;;;;;;;;;;;;;;;5132501;27;1902;-41
2023/03/21 14:18:41;;;;;;;;;;;;;;;;;;5132710;27;1492;-40
2023/03/21 14:21:24;;;;;;;;;;;;;;;;;;5133014;27;2009;-42
2023/03/21 14:23:57;;;;;;;;;;;;;;;;;;5132664;27;1798;-41
2023/03/21 14:26:26;;;;;;;;;;;;;;;;;;5132691;27;1750;-41
2023/03/21 14:28:53;;;;;;;;;;;;;;;;;;5132549;27;1855;-41
2023/03/21 14:31:20;;;;;;;;;;;;;;;;;;5132314;27;2105;-42
2023/03/21 14:33:52;;;;;;;;;;;;;;;;;;5132433;27;1858;-44
2023/03/21 14:36:22;;;;;;;;;;;;;;;;;;5132144;27;2038;-41
2023/03/21 14:39:14;;;;;;;;;;;;;;;;;;5131976;27;1200;-43
2023/03/21 14:41:46;;;;;;;;;;;;;;;;;;5125152;27;1985;-41
2023/03/21 14:44:27;;;;;;;;;;;;;;;;;;5132440;27;2073;-42
2023/03/21 14:46:59;;;;;;;;;;;;;;;;;;5132520;27;1501;-43
2023/03/21 14:49:28;;;;;;;;;;;;;;;;;;5132068;27;1768;-43
2023/03/21 14:52:03;;;;;;;;;;;;;;;;;;5113719;27;2175;-42
2023/03/21 14:54:32;;;;;;;;;;;;;;;;;;5131802;27;2105;-42
2023/03/21 14:57:01;;;;;;;;;;;;;;;;;;5132140;27;1671;-45
2023/03/21 14:59:31;;;;;;;;;;;;;;;;;;5132148;28;1970;-42
2023/03/21 15:02:01;;;;;;;;;;;;;;;;;;5132253;28;1935;-50
2023/03/21 15:04:29;;;;;;;;;;;;;;;;;;5132029;28;1797;-45
2023/03/21 15:07:03;;;;;;;;;;;;;;;;;;5131852;28;1789;-42
2023/03/21 15:09:33;;;;;;;;;;;;;;;;;;5132029;28;1772;-42
2023/03/21 15:12:06;;;;;;;;;;;;;;;;;;5131079;27;1647;-42
2023/03/21 15:14:34;;;;;;;;;;;;;;;;;;5134182;27;1700;-42
2023/03/21 15:17:03;;;;;;;;;;;;;;;;;;5133903;27;1872;-46
2023/03/21 15:19:32;;;;;;;;;;;;;;;;;;5134051;27;2098;-44
2023/03/21 15:22:03;;;;;;;;;;;;;;;;;;5134378;27;1722;-43
2023/03/21 15:24:35;;;;;;;;;;;;;;;;;;5133936;27;1774;-42
2023/03/21 15:27:06;;;;;;;;;;;;;;;;;;5134196;27;2236;-45
2023/03/21 15:29:35;;;;;;;;;;;;;;;;;;5135190;27;1793;-43
2023/03/21 15:32:03;;;;;;;;;;;;;;;;;;5135892;27;1948;-46
2023/03/21 15:34:31;;;;;;;;;;;;;;;;;;5135837;27;1679;-46
2023/03/21 15:37:06;;;;;;;;;;;;;;;;;;5135229;27;2091;-48
2023/03/21 15:39:35;;;;;;;;;;;;;;;;;;5135645;27;1330;-41
2023/03/21 15:42:21;;;;;;;;;;;;;;;;;;5135573;27;2001;-43
2023/03/21 15:44:52;;;;;;;;;;;;;;;;;;5135711;27;2176;-47
2023/03/21 15:47:35;;;;;;;;;;;;;;;;;;5135764;27;1579;-41
2023/03/21 15:50:06;;;;;;;;;;;;;;;;;;5135635;27;1698;-41
2023/03/21 15:52:34;;;;;;;;;;;;;;;;;;5135388;27;1871;-41
2023/03/21 15:55:03;;;;;;;;;;;;;;;;;;5135372;27;1941;-49
2023/03/21 15:57:32;;;;;;;;;;;;;;;;;;5135634;27;1920;-56
2023/03/21 16:00:10;;;;;;;;;;;;;;;;;;5135285;27;1907;-44
2023/03/21 16:02:40;;;;;;;;;;;;;;;;;;5135176;27;2023;-42
2023/03/21 16:05:24;;;;;;;;;;;;;;;;;;5135071;27;1296;-41
2023/03/21 16:07:51;;;;;;;;;;;;;;;;;;5135018;27;1916;-40
2023/03/21 16:10:25;;;;;;;;;;;;;;;;;;5135256;27;1709;-41
2023/03/21 16:12:53;;;;;;;;;;;;;;;;;;5134690;27;2204;-42
2023/03/21 16:15:20;;;;;;;;;;;;;;;;;;5135173;27;2072;-41
2023/03/21 16:17:52;;;;;;;;;;;;;;;;;;5134798;27;2044;-41
2023/03/21 16:20:21;;;;;;;;;;;;;;;;;;5134917;27;1969;-41
2023/03/21 16:22:48;;;;;;;;;;;;;;;;;;5134793;27;1848;-41
2023/03/21 16:25:15;;;;;;;;;;;;;;;;;;5134836;27;1979;-41
2023/03/21 16:27:43;;;;;;;;;;;;;;;;;;5134941;27;1701;-41
2023/03/21 16:30:11;;;;;;;;;;;;;;;;;;5116307;27;2017;-41
2023/03/21 16:32:39;;;;;;;;;;;;;;;;;;5134931;27;1620;-42
2023/03/21 16:35:07;;;;;;;;;;;;;;;;;;5134725;27;1917;-41
2023/03/21 16:37:34;;;;;;;;;;;;;;;;;;5134899;27;2418;-42
2023/03/21 16:40:04;;;;;;;;;;;;;;;;;;5134400;27;1919;-47
2023/03/21 16:42:32;;;;;;;;;;;;;;;;;;5134514;27;2033;-41
2023/03/21 16:44:59;;;;;;;;;;;;;;;;;;5134216;27;2325;-40
2023/03/21 16:47:26;;;;;;;;;;;;;;;;;;5133902;27;2205;-41
2023/03/21 16:49:54;;;;;;;;;;;;;;;;;;5134418;27;1788;-41
2023/03/21 16:52:21;;;;;;;;;;;;;;;;;;5134528;27;1970;-40
2023/03/21 16:54:52;;;;;;;;;;;;;;;;;;5134309;27;1822;-41
2023/03/21 16:57:26;;;;;;;;;;;;;;;;;;5133912;27;1939;-40
2023/03/21 16:59:54;;;;;;;;;;;;;;;;;;5134404;27;2096;-41
2023/03/21 17:02:22;;;;;;;;;;;;;;;;;;5134518;27;1982;-41
2023/03/21 17:04:50;;;;;;;;;;;;;;;;;;5134096;27;1948;-41
2023/03/21 17:07:17;;;;;;;;;;;;;;;;;;5143213;27;1904;-41
2023/03/21 17:09:46;;;;;;;;;;;;;;;;;;5154939;27;2161;-41
2023/03/21 17:12:15;;;;;;;;;;;;;;;;;;5154870;27;1983;-41
2023/03/21 17:14:43;;;;;;;;;;;;;;;;;;5154432;27;2022;-41
2023/03/21 17:17:10;;;;;;;;;;;;;;;;;;5154260;27;2081;-45
2023/03/21 17:19:38;;;;;;;;;;;;;;;;;;5154760;27;1652;-42
2023/03/21 17:22:05;;;;;;;;;;;;;;;;;;5135963;27;1976;-41
2023/03/21 17:24:33;;;;;;;;;;;;;;;;;;5154453;27;2014;-40
2023/03/21 17:27:01;;;;;;;;;;;;;;;;;;5154469;27;2032;-40
2023/03/21 17:29:28;;;;;;;;;;;;;;;;;;5154335;27;1533;-41
2023/03/21 17:31:56;;;;;;;;;;;;;;;;;;5154402;27;1672;-42
2023/03/21 17:34:23;;;;;;;;;;;;;;;;;;5154095;27;1800;-48
2023/03/21 17:36:50;;;;;;;;;;;;;;;;;;5153107;27;1676;-41